Time;durP1;ratioP1;P1;durP2;ratioP2;P2;SDS_P1;SDS_P2;PMS_P1;PMS_P2;Temp;Humidity;BMP_temperature;BMP_pressure;BME280_temperature;BME280_humidity;BME280_pressure;Samples;Min_cycle;Max_cycle;Signal;HPM_P1;HPM_P2
2023/03/10 00:01:16;;;;;;;78.20;46.40;;;;;;;4.16;100.00;97446.02;270527;1266;22575;-82
2023/03/10 00:07:18;;;;;;;65.00;39.90;;;;;;;4.12;100.00;97438.70;270576;1266;25401;-82
2023/03/10 00:13:20;;;;;;;71.70;41.50;;;;;;;4.08;100.00;97429.75;270393;1266;25478;-82
2023/03/10 00:19:22;;;;;;;97.90;54.80;;;;;;;4.11;100.00;97415.62;270562;1266;22729;-82
2023/03/10 00:25:23;;;;;;;82.50;48.70;;;;;;;4.11;100.00;97407.11;270873;1266;22519;-82
2023/03/10 00:31:38;;;;;;;74.10;42.40;;;;;;;4.11;100.00;97402.48;270666;1266;22735;-82
2023/03/10 00:37:42;;;;;;;75.50;43.80;;;;;;;4.02;100.00;97405.00;270072;1256;22707;-83
2023/03/10 00:43:45;;;;;;;75.90;45.00;;;;;;;3.96;100.00;97408.88;269882;1266;23415;-82
2023/03/10 00:49:47;;;;;;;73.90;43.00;;;;;;;3.89;100.00;97396.04;270260;1266;23377;-82
2023/03/10 00:56:36;;;;;;;77.20;44.60;;;;;;;3.81;100.00;97382.02;272329;1260;23818;-81
2023/03/10 01:02:45;;;;;;;76.90;43.60;;;;;;;3.67;100.00;97373.65;270502;1257;23829;-81
2023/03/10 01:08:47;;;;;;;81.60;42.70;;;;;;;3.57;100.00;97365.33;272834;1251;22495;-81
2023/03/10 01:15:30;;;;;;;76.40;39.80;;;;;;;3.44;100.00;97360.92;271754;1266;22542;-82
2023/03/10 01:22:28;;;;;;;65.20;36.70;;;;;;;3.43;100.00;97361.29;272850;1266;22507;-83
2023/03/10 01:28:29;;;;;;;57.40;33.00;;;;;;;3.56;100.00;97359.54;273901;1265;22448;-83
2023/03/10 01:34:32;;;;;;;59.50;33.90;;;;;;;3.66;100.00;97346.51;272192;1266;24899;-85
2023/03/10 01:40:51;;;;;;;53.40;31.50;;;;;;;3.75;100.00;97351.26;270364;1256;24883;-83
2023/03/10 01:46:54;;;;;;;49.90;29.00;;;;;;;3.82;100.00;97342.74;273163;1253;22355;-83
2023/03/10 01:53:23;;;;;;;47.00;28.30;;;;;;;3.88;100.00;97333.84;274112;1266;22312;-82
2023/03/10 01:59:26;;;;;;;25.20;14.90;;;;;;;3.93;100.00;97322.82;273769;1266;22930;-86
2023/03/10 02:05:31;;;;;;;12.10;6.90;;;;;;;4.08;100.00;97310.90;273752;1267;22536;-83
2023/03/10 02:11:34;;;;;;;10.90;4.70;;;;;;;4.42;100.00;97308.35;270545;1253;23736;-83
2023/03/10 02:17:36;;;;;;;7.20;2.20;;;;;;;4.72;100.00;97310.52;270085;1257;22528;-82
2023/03/10 02:23:39;;;;;;;5.70;2.20;;;;;;;5.02;100.00;97311.71;269477;1257;23824;-82
2023/03/10 02:30:16;;;;;;;3.90;2.10;;;;;;;5.41;100.00;97314.09;269677;1253;23632;-85
2023/03/10 02:36:22;;;;;;;4.10;2.00;;;;;;;5.78;100.00;97314.02;274085;1267;22497;-83
2023/03/10 02:43:04;;;;;;;3.00;1.70;;;;;;;6.02;100.00;97305.70;270411;1266;22277;-83
2023/03/10 02:49:11;;;;;;;5.20;1.50;;;;;;;6.12;100.00;97303.33;271005;1266;22416;-83
2023/03/10 02:55:56;;;;;;;4.10;1.10;;;;;;;6.25;100.00;97295.98;274286;1272;23822;-82
2023/03/10 03:01:59;;;;;;;3.80;1.50;;;;;;;6.40;100.00;97284.87;270050;1266;22520;-82
2023/03/10 03:08:02;;;;;;;5.30;1.60;;;;;;;6.53;100.00;97283.78;272652;1256;22451;-83
2023/03/10 03:14:40;;;;;;;3.40;1.50;;;;;;;6.64;100.00;97276.47;272473;1253;22207;-83
2023/03/10 03:21:07;;;;;;;2.10;1.30;;;;;;;6.76;100.00;97264.48;274033;1266;23333;-83
2023/03/10 03:27:24;;;;;;;6.30;1.50;;;;;;;6.94;100.00;97256.14;274067;1266;22203;-83
2023/03/10 03:33:44;;;;;;;4.90;1.50;;;;;;;7.16;100.00;97248.46;274085;1266;22285;-83
2023/03/10 03:39:46;;;;;;;3.30;1.40;;;;;;;7.31;100.00;97241.94;273764;1266;22259;-83
2023/03/10 03:46:09;;;;;;;3.90;1.70;;;;;;;7.27;100.00;97239.95;274191;1267;23455;-83
2023/03/10 03:52:11;;;;;;;5.30;1.50;;;;;;;7.20;100.00;97236.86;273877;1266;22372;-83
2023/03/10 03:58:13;;;;;;;3.50;1.70;;;;;;;7.14;100.00;97230.05;273531;1266;23314;-83
2023/03/10 04:04:15;;;;;;;3.40;1.50;;;;;;;7.11;100.00;97224.77;269819;1267;22524;-83
2023/03/10 04:10:38;;;;;;;3.30;1.30;;;;;;;7.22;100.00;97213.14;270623;1253;23726;-83
2023/03/10 04:16:40;;;;;;;6.60;1.50;;;;;;;7.24;100.00;97199.90;270283;1267;22463;-82
2023/03/10 04:22:43;;;;;;;2.50;1.20;;;;;;;7.17;100.00;97188.04;270325;1267;22553;-86
2023/03/10 04:28:55;;;;;;;3.60;1.30;;;;;;;7.11;100.00;97186.27;269906;1259;23728;-83
2023/03/10 04:35:02;;;;;;;3.10;1.50;;;;;;;7.00;100.00;97178.71;272091;1267;22200;-84
2023/03/10 04:41:04;;;;;;;5.20;1.60;;;;;;;6.89;100.00;97169.27;271781;1259;24358;-83
2023/03/10 04:47:09;;;;;;;2.60;1.00;;;;;;;6.87;100.00;97152.18;269870;1267;22651;-83
2023/03/10 04:53:31;;;;;;;2.40;0.90;;;;;;;6.86;100.00;97146.28;270457;1267;22600;-83
2023/03/10 04:59:34;;;;;;;4.00;1.40;;;;;;;6.90;100.00;97147.50;272489;1257;22193;-83
2023/03/10 05:05:58;;;;;;;4.30;1.10;;;;;;;6.93;100.00;97142.30;273249;1266;22404;-84
2023/03/10 05:12:23;;;;;;;3.40;1.00;;;;;;;6.91;100.00;97139.04;271260;1259;137533;-83
2023/03/10 05:19:05;;;;;;;1.60;1.10;;;;;;;6.75;100.00;97144.14;273590;1266;22520;-84
2023/03/10 05:25:17;;;;;;;3.80;1.20;;;;;;;6.56;100.00;97135.89;273820;1257;22185;-83
2023/03/10 05:31:24;;;;;;;6.20;1.80;;;;;;;6.41;100.00;97127.16;271486;1266;22548;-83
2023/03/10 05:37:39;;;;;;;6.10;2.00;;;;;;;6.48;100.00;97125.52;270902;1264;26533;-84
2023/03/10 05:43:55;;;;;;;3.80;1.90;;;;;;;6.55;100.00;97125.56;272984;1266;22409;-84
2023/03/10 05:49:59;;;;;;;4.40;1.80;;;;;;;6.72;100.00;97116.56;273972;1268;23313;-83
2023/03/10 05:56:26;;;;;;;2.60;1.60;;;;;;;6.92;100.00;97101.87;272225;1266;23316;-86
2023/03/10 06:02:32;;;;;;;3.20;1.90;;;;;;;6.90;100.00;97089.92;273702;1266;24029;-85
2023/03/10 06:08:34;;;;;;;4.20;1.90;;;;;;;6.77;100.00;97081.74;271049;1266;26648;-82
2023/03/10 06:14:37;;;;;;;5.40;2.20;;;;;;;6.79;100.00;97075.37;269975;1266;22556;-83
2023/03/10 06:20:59;;;;;;;7.30;2.80;;;;;;;6.91;100.00;97071.50;273592;1267;23260;-83
2023/03/10 06:27:01;;;;;;;5.20;1.90;;;;;;;7.09;100.00;97069.46;270481;1256;22560;-83
2023/03/10 06:33:03;;;;;;;7.90;2.10;;;;;;;7.37;100.00;97069.96;270192;1267;22665;-82
2023/03/10 06:39:05;;;;;;;8.70;4.20;;;;;;;7.80;100.00;97067.52;270262;1267;22543;-84
2023/03/10 06:45:09;;;;;;;6.50;3.20;;;;;;;8.34;100.00;97063.81;270158;1266;22550;-82
2023/03/10 06:51:14;;;;;;;6.60;2.90;;;;;;;8.84;100.00;97049.44;271881;1267;22400;-83
2023/03/10 06:57:19;;;;;;;5.90;2.00;;;;;;;9.33;100.00;97045.85;273644;1266;23330;-82
2023/03/10 07:03:41;;;;;;;5.20;2.30;;;;;;;9.69;99.85;97037.88;273958;1266;23596;-83
2023/03/10 07:09:44;;;;;;;4.90;2.30;;;;;;;9.86;99.51;97023.84;273780;1266;22518;-83
2023/03/10 07:15:47;;;;;;;4.50;1.70;;;;;;;10.26;99.28;97014.45;273847;1266;23924;-83
2023/03/10 07:22:29;;;;;;;4.60;1.80;;;;;;;10.76;98.38;97007.81;274110;1267;23353;-83
2023/03/10 07:28:53;;;;;;;3.20;1.50;;;;;;;11.30;97.72;96998.72;274224;1269;22239;-82
2023/03/10 07:34:57;;;;;;;5.90;2.00;;;;;;;11.73;96.39;96993.36;274074;1267;22238;-83
2023/03/10 07:41:19;;;;;;;3.70;1.70;;;;;;;12.28;95.63;96991.77;274187;1266;22302;-83
2023/03/10 07:47:21;;;;;;;4.00;1.60;;;;;;;12.75;94.62;96980.47;273915;1266;23576;-83
2023/03/10 07:53:42;;;;;;;6.50;2.60;;;;;;;13.26;94.47;96979.14;274108;1272;22920;-83
2023/03/10 08:00:05;;;;;;;7.10;2.40;;;;;;;13.74;91.60;96974.19;274340;1266;22952;-83
2023/03/10 08:06:27;;;;;;;4.90;2.30;;;;;;;14.17;90.44;96966.92;273442;1269;22375;-83
2023/03/10 08:12:34;;;;;;;7.90;2.70;;;;;;;14.66;89.11;96957.06;271739;1269;22976;-83
2023/03/10 08:18:36;;;;;;;5.10;1.50;;;;;;;15.08;88.19;96944.64;272137;1269;22402;-83
2023/03/10 08:25:19;;;;;;;3.10;1.10;;;;;;;15.30;81.81;96944.17;273125;1269;22308;-83
2023/03/10 08:31:55;;;;;;;4.90;0.90;;;;;;;15.74;80.72;96941.84;273171;1269;23318;-84
2023/03/10 08:37:56;;;;;;;1.70;0.80;;;;;;;16.19;77.68;96933.50;272021;1266;22543;-83
2023/03/10 08:44:16;;;;;;;2.20;0.70;;;;;;;16.46;72.70;96927.20;270506;1267;22803;-83
2023/03/10 08:50:20;;;;;;;4.20;0.90;;;;;;;16.54;72.44;96914.36;270936;1266;22948;-83
2023/03/10 08:56:24;;;;;;;3.40;0.70;;;;;;;17.43;72.78;96915.33;270626;1267;22542;-84
2023/03/10 09:02:56;;;;;;;1.60;0.70;;;;;;;18.27;71.51;96903.81;270401;1266;22524;-83
2023/03/10 09:09:38;;;;;;;3.20;0.60;;;;;;;18.27;64.75;96898.25;274132;1262;22267;-83
2023/03/10 09:15:40;;;;;;;1.80;0.70;;;;;;;17.84;63.21;96895.45;273517;1266;22648;-83
2023/03/10 09:21:42;;;;;;;3.20;1.00;;;;;;;17.42;62.93;96893.61;273756;1266;22521;-83
2023/03/10 09:27:43;;;;;;;1.60;0.80;;;;;;;17.02;61.75;96890.48;270982;1267;23073;-84
2023/03/10 09:33:45;;;;;;;1.60;0.80;;;;;;;16.73;61.01;96894.30;273869;1265;23604;-84
2023/03/10 09:40:14;;;;;;;2.40;0.80;;;;;;;16.56;60.44;96895.25;274320;1271;22407;-84
2023/03/10 09:46:41;;;;;;;1.50;0.80;;;;;;;16.56;59.69;96895.56;272867;1267;22209;-85
2023/03/10 09:52:55;;;;;;;3.30;1.10;;;;;;;16.62;58.08;96897.60;271562;1253;22448;-83
2023/03/10 09:59:29;;;;;;;1.40;0.60;;;;;;;16.71;58.16;96896.38;272115;1272;23623;-83
2023/03/10 10:05:48;;;;;;;3.60;1.00;;;;;;;16.82;56.33;96882.09;269752;1270;24017;-84
2023/03/10 10:12:14;;;;;;;2.60;0.80;;;;;;;17.40;53.35;96880.97;271386;1268;22536;-83
2023/03/10 10:18:56;;;;;;;1.90;1.00;;;;;;;17.93;52.35;96871.66;270704;1269;22596;-83
2023/03/10 10:25:42;;;;;;;2.50;0.80;;;;;;;17.87;51.03;96869.14;273117;1272;22916;-84
2023/03/10 10:32:10;;;;;;;3.20;0.90;;;;;;;17.44;50.86;96863.25;271964;1259;22189;-83
2023/03/10 10:38:14;;;;;;;2.40;0.80;;;;;;;17.16;51.31;96854.00;270196;1270;22542;-84
2023/03/10 10:44:17;;;;;;;1.80;0.70;;;;;;;17.47;50.08;96840.80;269685;1270;22545;-84
2023/03/10 10:50:42;;;;;;;2.80;1.20;;;;;;;17.57;50.44;96838.55;270903;1269;23232;-85
2023/03/10 10:57:50;;;;;;;2.10;0.90;;;;;;;17.45;49.62;96836.41;270572;1269;23405;-85
2023/03/10 11:04:05;;;;;;;1.80;1.10;;;;;;;17.83;49.89;96827.05;270188;1269;22567;-85
2023/03/10 11:10:27;;;;;;;5.30;1.20;;;;;;;18.62;49.06;96810.17;270203;1266;24270;-84
2023/03/10 11:17:05;;;;;;;3.70;1.10;;;;;;;18.88;48.83;96803.37;271472;1269;22385;-84
2023/03/10 11:23:10;;;;;;;3.80;1.90;;;;;;;19.12;48.81;96789.90;273253;1269;22433;-84
2023/03/10 11:29:27;;;;;;;4.70;1.10;;;;;;;19.32;48.60;96785.75;272367;1269;22402;-85
2023/03/10 11:35:47;;;;;;;;;;;;;;;19.91;48.37;96774.52;273184;1269;23223;-85
2023/03/10 11:41:58;;;;;;;2.40;1.10;;;;;;;20.36;46.06;96774.59;273242;1270;23750;-83
2023/03/10 11:48:05;;;;;;;4.00;1.30;;;;;;;20.37;46.37;96775.45;271243;1269;23372;-84
2023/03/10 11:54:50;;;;;;;3.80;1.30;;;;;;;20.08;44.56;96776.27;270598;1255;22558;-84
2023/03/10 12:01:51;;;;;;;5.90;1.60;;;;;;;19.11;44.73;96765.58;270583;1269;22469;-84
2023/03/10 12:08:13;;;;;;;2.60;1.00;;;;;;;18.72;45.39;96754.68;270108;1260;22660;-83
2023/03/10 12:14:15;;;;;;;3.10;1.10;;;;;;;18.85;44.51;96759.19;269857;1269;22580;-84
2023/03/10 12:20:54;;;;;;;3.40;1.20;;;;;;;18.85;44.78;96757.02;269686;1269;22535;-84
2023/03/10 12:27:00;;;;;;;4.10;1.00;;;;;;;18.89;43.88;96750.31;271856;1260;22206;-84
2023/03/10 12:33:01;;;;;;;5.30;1.40;;;;;;;18.75;44.07;96739.89;273047;1269;22355;-84
2023/03/10 12:39:42;;;;;;;3.40;1.50;;;;;;;18.80;44.84;96735.02;270885;1259;25398;-85
2023/03/10 12:45:46;;;;;;;4.70;1.40;;;;;;;18.43;44.87;96726.70;270274;1266;22937;-83
2023/03/10 12:52:19;;;;;;;4.90;0.90;;;;;;;18.28;45.33;96728.23;272063;1259;23453;-84
2023/03/10 12:58:22;;;;;;;2.30;1.10;;;;;;;18.31;45.81;96729.69;271170;1263;23172;-84
2023/03/10 13:04:51;;;;;;;4.30;1.30;;;;;;;18.23;45.75;96728.79;272034;1270;22414;-84
2023/03/10 13:11:22;;;;;;;3.80;1.00;;;;;;;18.06;45.93;96732.14;272845;1269;23699;-84
2023/03/10 13:18:01;;;;;;;5.60;1.60;;;;;;;17.72;46.14;96736.83;273081;1269;22448;-84
2023/03/10 13:24:58;;;;;;;3.90;1.40;;;;;;;17.24;46.43;96736.55;272839;1269;22411;-85
2023/03/10 13:31:48;;;;;;;3.90;1.00;;;;;;;16.82;47.02;96737.04;273123;1272;22364;-84
2023/03/10 13:38:42;;;;;;;5.50;2.60;;;;;;;16.67;47.46;96740.63;273160;1269;23339;-84
2023/03/10 13:44:46;;;;;;;3.60;1.20;;;;;;;16.61;48.07;96749.56;273445;1271;22193;-84
2023/03/10 13:51:11;;;;;;;4.10;1.80;;;;;;;16.74;48.29;96743.80;272640;1270;24231;-84
2023/03/10 13:57:25;;;;;;;4.60;1.30;;;;;;;16.85;48.77;96738.38;270025;1267;22556;-84
2023/03/10 14:03:27;;;;;;;3.50;1.40;;;;;;;16.97;49.04;96735.97;270948;1270;22534;-84
2023/03/10 14:09:28;;;;;;;2.90;1.40;;;;;;;16.98;49.18;96723.34;272329;1264;23291;-85
2023/03/10 14:16:13;;;;;;;4.80;1.70;;;;;;;16.87;49.22;96725.25;272682;1258;22433;-85
2023/03/10 14:23:39;;;;;;;6.60;1.40;;;;;;;16.73;49.35;96713.00;273224;1270;23213;-84
2023/03/10 14:30:09;;;;;;;5.20;1.30;;;;;;;16.58;49.95;96705.23;273735;1260;22244;-84
2023/03/10 14:36:32;;;;;;;4.00;1.70;;;;;;;16.39;49.86;96696.10;273405;1270;22271;-84
2023/03/10 14:43:13;;;;;;;6.10;1.50;;;;;;;16.21;50.12;96689.30;273166;1269;22633;-83
2023/03/10 14:49:15;;;;;;;3.00;1.30;;;;;;;16.08;50.43;96682.06;273329;1270;22981;-84
2023/03/10 14:55:17;;;;;;;4.30;1.40;;;;;;;15.98;50.58;96678.77;272608;1270;25256;-84
2023/03/10 15:01:19;;;;;;;3.50;1.30;;;;;;;15.89;50.73;96669.65;270594;1269;22486;-85
2023/03/10 15:07:24;;;;;;;4.40;1.60;;;;;;;15.81;50.99;96668.20;272743;1270;22285;-84
2023/03/10 15:13:26;;;;;;;5.30;2.50;;;;;;;15.73;51.35;96666.61;273233;1267;23697;-84
2023/03/10 15:19:28;;;;;;;6.30;3.20;;;;;;;15.67;51.26;96665.71;273130;1260;22371;-84
2023/03/10 15:26:10;;;;;;;7.90;2.80;;;;;;;15.53;51.38;96663.47;273201;1269;22387;-84
2023/03/10 15:32:19;;;;;;;8.70;4.50;;;;;;;15.37;52.06;96665.30;272705;1270;23451;-84
2023/03/10 15:38:20;;;;;;;8.00;3.80;;;;;;;15.22;52.64;96661.97;271775;1270;22262;-84
2023/03/10 15:44:22;;;;;;;6.40;3.30;;;;;;;15.11;52.69;96658.20;271211;1263;22375;-84
2023/03/10 15:50:24;;;;;;;9.10;2.40;;;;;;;14.98;53.18;96656.23;271250;1257;22496;-84
2023/03/10 15:56:26;;;;;;;5.00;2.20;;;;;;;14.79;53.51;96658.93;272216;1270;24363;-84
2023/03/10 16:02:28;;;;;;;6.70;2.30;;;;;;;14.59;53.71;96658.79;270087;1269;23652;-84
2023/03/10 16:08:36;;;;;;;8.40;2.60;;;;;;;14.36;54.13;96658.00;271736;1266;23594;-83
2023/03/10 16:14:38;;;;;;;23.60;10.90;;;;;;;14.16;54.79;96655.66;270821;1269;22755;-83
2023/03/10 16:20:39;;;;;;;29.30;12.20;;;;;;;13.92;55.10;96656.38;270687;1269;22590;-87
2023/03/10 16:27:05;;;;;;;12.20;4.90;;;;;;;13.67;55.83;96659.95;272809;1264;23090;-83
2023/03/10 16:33:29;;;;;;;15.40;5.60;;;;;;;13.41;56.69;96663.90;272599;1269;22422;-83
2023/03/10 16:39:33;;;;;;;22.30;6.80;;;;;;;13.24;57.43;96664.14;272287;1264;22253;-84
2023/03/10 16:45:35;;;;;;;18.20;7.20;;;;;;;13.17;57.99;96668.24;273294;1269;22363;-84
2023/03/10 16:52:09;;;;;;;12.10;5.80;;;;;;;13.13;58.72;96675.91;273255;1262;22244;-84
2023/03/10 16:58:57;;;;;;;11.10;5.60;;;;;;;13.09;59.63;96677.54;273243;1270;22248;-83
2023/03/10 17:04:59;;;;;;;19.60;9.70;;;;;;;13.05;60.45;96682.70;273337;1269;23230;-85
2023/03/10 17:11:01;;;;;;;12.10;5.50;;;;;;;13.01;60.68;96698.40;273314;1269;216183;-83
2023/03/10 17:17:03;;;;;;;10.60;4.50;;;;;;;12.98;61.26;96711.27;270919;1269;22594;-82
2023/03/10 17:23:05;;;;;;;5.10;3.10;;;;;;;12.81;62.53;96721.49;270475;1269;22200;-84
2023/03/10 17:29:08;;;;;;;7.70;1.80;;;;;;;12.53;63.81;96735.67;272882;1269;22417;-83
2023/03/10 17:35:10;;;;;;;3.00;1.90;;;;;;;12.18;64.97;96737.49;271710;1269;22403;-82
2023/03/10 17:41:14;;;;;;;9.80;2.50;;;;;;;11.82;65.93;96733.20;271136;1265;22917;-83
2023/03/10 17:47:16;;;;;;;5.30;2.40;;;;;;;11.53;67.58;96732.52;271014;1269;22435;-83
2023/03/10 17:53:17;;;;;;;9.00;3.80;;;;;;;11.32;68.59;96745.74;270697;1269;23172;-84
2023/03/10 17:59:20;;;;;;;4.90;2.40;;;;;;;11.10;69.42;96752.42;270141;1269;22529;-84
2023/03/10 18:05:39;;;;;;;5.70;3.20;;;;;;;10.80;71.07;96757.05;270723;1270;23280;-83
2023/03/10 18:11:41;;;;;;;5.40;3.00;;;;;;;10.40;73.30;96755.99;271503;1268;22538;-83
2023/03/10 18:17:43;;;;;;;8.60;4.10;;;;;;;10.21;76.31;96748.80;273184;1270;22286;-83
2023/03/10 18:23:45;;;;;;;6.70;3.60;;;;;;;10.08;82.56;96734.88;273119;1269;22411;-84
2023/03/10 18:29:47;;;;;;;5.80;3.10;;;;;;;9.86;84.54;96716.85;273050;1269;22394;-83
2023/03/10 18:35:51;;;;;;;5.10;2.30;;;;;;;9.66;84.50;96699.64;273116;1268;23079;-83
2023/03/10 18:41:58;;;;;;;7.20;3.20;;;;;;;9.63;86.73;96689.41;273476;1259;22181;-83
2023/03/10 18:48:00;;;;;;;9.50;4.80;;;;;;;9.54;88.48;96679.52;272267;1269;22630;-82
2023/03/10 18:54:02;;;;;;;9.70;4.70;;;;;;;9.40;89.66;96682.73;271367;1269;22247;-83
2023/03/10 19:00:06;;;;;;;11.90;5.00;;;;;;;9.30;91.66;96674.98;270936;1270;22704;-83
2023/03/10 19:06:08;;;;;;;8.00;4.10;;;;;;;9.24;91.12;96662.15;270533;1260;22570;-83
2023/03/10 19:12:10;;;;;;;6.30;3.90;;;;;;;9.24;90.80;96641.40;272066;1270;22979;-83
2023/03/10 19:18:53;;;;;;;8.20;4.40;;;;;;;9.19;90.34;96645.09;272610;1259;23170;-83
2023/03/10 19:24:54;;;;;;;7.90;3.70;;;;;;;9.20;90.55;96636.42;271814;1256;22554;-83
2023/03/10 19:30:56;;;;;;;5.60;2.90;;;;;;;9.32;90.61;96610.04;271561;1261;22540;-83
2023/03/10 19:36:58;;;;;;;8.50;3.90;;;;;;;9.39;90.10;96598.41;272850;1264;23357;-83
2023/03/10 19:43:01;;;;;;;10.40;4.40;;;;;;;9.41;89.38;96593.31;272948;1270;22604;-83
2023/03/10 19:49:05;;;;;;;7.10;4.20;;;;;;;9.34;89.00;96608.27;273034;1269;22433;-83
2023/03/10 19:55:08;;;;;;;10.40;4.40;;;;;;;9.24;89.53;96625.89;272791;1265;22426;-84
2023/03/10 20:01:38;;;;;;;6.00;3.60;;;;;;;9.10;89.51;96623.38;273181;1270;22306;-82
2023/03/10 20:07:43;;;;;;;8.00;4.20;;;;;;;9.02;89.68;96617.77;272747;1270;22453;-83
2023/03/10 20:13:44;;;;;;;6.60;4.00;;;;;;;8.92;89.92;96609.73;271502;1256;22543;-83
2023/03/10 20:19:46;;;;;;;8.80;4.50;;;;;;;8.84;90.29;96603.19;272383;1270;22469;-83
2023/03/10 20:25:48;;;;;;;9.10;4.40;;;;;;;8.80;90.20;96599.84;272870;1264;23898;-83
2023/03/10 20:31:56;;;;;;;20.10;7.40;;;;;;;8.71;90.41;96602.34;273227;1270;22235;-83
2023/03/10 20:37:59;;;;;;;12.50;6.20;;;;;;;8.62;91.19;96598.33;272660;1265;22650;-83
2023/03/10 20:44:01;;;;;;;15.00;7.60;;;;;;;8.57;91.46;96596.16;271724;1271;22546;-84
2023/03/10 20:50:26;;;;;;;14.00;6.90;;;;;;;8.47;91.41;96587.08;270188;1267;22501;-84
2023/03/10 20:56:48;;;;;;;16.50;8.60;;;;;;;8.33;91.59;96582.60;272441;1260;22210;-83
2023/03/10 21:03:10;;;;;;;18.50;9.10;;;;;;;8.10;91.55;96575.91;270864;1259;22588;-84
2023/03/10 21:09:12;;;;;;;30.00;13.40;;;;;;;7.86;91.96;96566.81;270335;1269;22510;-84
2023/03/10 21:15:19;;;;;;;29.70;14.20;;;;;;;7.67;92.25;96557.33;272504;1269;22949;-84
2023/03/10 21:21:52;;;;;;;28.70;14.80;;;;;;;7.50;92.65;96555.64;272922;1257;22329;-83
2023/03/10 21:28:14;;;;;;;34.20;17.10;;;;;;;7.35;93.02;96548.65;273364;1272;22404;-83
2023/03/10 21:34:16;;;;;;;40.70;18.00;;;;;;;7.25;93.68;96539.87;272935;1269;22380;-84
2023/03/10 21:40:19;;;;;;;48.70;22.40;;;;;;;7.19;94.08;96530.31;272533;1269;23709;-84
2023/03/10 21:46:25;;;;;;;41.80;24.10;;;;;;;7.12;94.37;96525.45;273361;1261;22199;-83
2023/03/10 21:52:27;;;;;;;36.90;20.60;;;;;;;7.09;95.04;96516.41;273268;1259;23810;-83
2023/03/10 21:58:28;;;;;;;42.00;23.70;;;;;;;7.07;95.27;96509.98;270550;1269;22614;-85
2023/03/10 22:04:31;;;;;;;35.50;19.50;;;;;;;7.04;95.59;96501.08;270523;1271;22706;-83
2023/03/10 22:10:33;;;;;;;34.10;20.80;;;;;;;7.04;95.97;96501.33;270272;1269;22699;-83
2023/03/10 22:16:55;;;;;;;28.00;17.40;;;;;;;7.06;96.60;96499.20;270480;1269;22534;-83
2023/03/10 22:22:57;;;;;;;37.10;20.30;;;;;;;7.08;96.33;96500.79;269489;1269;23512;-83
2023/03/10 22:28:59;;;;;;;35.10;19.20;;;;;;;7.05;96.85;96493.52;269692;1269;22585;-82
2023/03/10 22:35:01;;;;;;;34.10;19.70;;;;;;;7.10;97.38;96483.11;270325;1270;22581;-83
2023/03/10 22:41:21;;;;;;;35.20;17.90;;;;;;;7.11;97.43;96481.16;269653;1258;22717;-83
2023/03/10 22:47:22;;;;;;;34.10;17.50;;;;;;;7.12;97.62;96472.05;269171;1269;23046;-83
2023/03/10 22:53:24;;;;;;;36.10;16.50;;;;;;;7.15;97.90;96462.91;269948;1256;22601;-83
2023/03/10 22:59:47;;;;;;;29.90;16.70;;;;;;;7.14;98.08;96463.15;269803;1269;23780;-84
2023/03/10 23:05:48;;;;;;;33.50;15.50;;;;;;;7.13;98.17;96462.70;270584;1265;22541;-83
2023/03/10 23:11:50;;;;;;;28.40;13.90;;;;;;;7.10;98.20;96455.21;270365;1269;22595;-84
2023/03/10 23:17:53;;;;;;;26.30;12.40;;;;;;;7.06;98.24;96455.90;269930;1259;22663;-83
2023/03/10 23:23:55;;;;;;;23.80;10.20;;;;;;;7.01;98.23;96453.58;272627;1269;22473;-83
2023/03/10 23:29:56;;;;;;;12.10;6.90;;;;;;;7.10;97.77;96459.80;273260;1269;22553;-83
2023/03/10 23:36:39;;;;;;;9.70;5.20;;;;;;;7.23;97.54;96465.97;270711;1268;22638;-83
2023/03/10 23:43:02;;;;;;;8.70;4.80;;;;;;;7.40;97.30;96463.20;270623;1254;23469;-83
2023/03/10 23:49:04;;;;;;;11.50;5.90;;;;;;;7.44;97.24;96460.80;273394;1269;22410;-84
2023/03/10 23:55:06;;;;;;;12.90;5.80;;;;;;;7.40;97.04;96463.73;270132;1269;23863;-85
